Time;durP1;ratioP1;P1;durP2;ratioP2;P2;SDS_P1;SDS_P2;PMS_P1;PMS_P2;Temp;Humidity;BMP_temperature;BMP_pressure;BME280_temperature;BME280_humidity;BME280_pressure;Samples;Min_cycle;Max_cycle;Signal;HPM_P1;HPM_P2
2023/02/14 00:00:00;;;;;;;87.20;31.50;;;;;;;-3.52;79.88;100823.86;106896;1282;23434;-77
2023/02/14 00:02:55;;;;;;;87.90;33.80;;;;;;;-3.58;80.41;100829.41;106795;1278;25389;-77
2023/02/14 00:05:26;;;;;;;86.10;30.00;;;;;;;-3.63;83.18;100816.28;106840;1275;25288;-76
2023/02/14 00:07:55;;;;;;;87.70;31.70;;;;;;;-3.65;82.01;100804.95;106705;1282;22529;-77
2023/02/14 00:10:23;;;;;;;77.90;30.60;;;;;;;-3.67;80.89;100804.98;106714;1278;22651;-77
2023/02/14 00:12:52;;;;;;;90.50;34.90;;;;;;;-3.70;82.68;100810.73;106709;1270;24304;-77
2023/02/14 00:15:23;;;;;;;68.00;28.00;;;;;;;-3.72;84.04;100808.42;106758;1267;24910;-77
2023/02/14 00:17:55;;;;;;;78.50;28.10;;;;;;;-3.70;82.47;100806.48;106783;1282;22608;-77
2023/02/14 00:20:24;;;;;;;82.20;30.80;;;;;;;-3.69;84.65;100797.27;109856;1282;22358;-77
2023/02/14 00:22:52;;;;;;;76.50;29.40;;;;;;;-3.64;84.45;100801.45;109867;1282;23082;-77
2023/02/14 00:25:20;;;;;;;81.90;31.40;;;;;;;-3.57;83.37;100799.46;108120;1283;25257;-77
2023/02/14 00:27:48;;;;;;;89.70;31.50;;;;;;;-3.50;83.40;100794.52;106703;1275;22544;-76
2023/02/14 00:30:17;;;;;;;81.80;29.20;;;;;;;-3.44;83.83;100780.92;106770;1275;22523;-76
2023/02/14 00:32:45;;;;;;;78.20;27.60;;;;;;;-3.40;83.50;100777.46;106633;1282;22533;-77
2023/02/14 00:35:14;;;;;;;69.50;25.30;;;;;;;-3.36;83.93;100780.02;106744;1282;22539;-77
2023/02/14 00:37:45;;;;;;;77.30;25.70;;;;;;;-3.34;83.04;100784.21;106793;1276;22547;-76
2023/02/14 00:40:14;;;;;;;72.50;23.60;;;;;;;-3.32;82.66;100782.28;106782;1276;24230;-77
2023/02/14 00:42:45;;;;;;;81.40;25.40;;;;;;;-3.34;82.85;100781.81;106845;1275;25314;-77
2023/02/14 00:45:17;;;;;;;83.10;30.90;;;;;;;-3.33;83.04;100785.27;106816;1278;24286;-76
2023/02/14 00:47:46;;;;;;;79.30;29.70;;;;;;;-3.33;83.44;100782.37;106858;1274;22529;-76
2023/02/14 00:50:17;;;;;;;81.40;30.90;;;;;;;-3.34;83.77;100780.14;106773;1282;24294;-77
2023/02/14 00:52:46;;;;;;;80.50;29.50;;;;;;;-3.33;82.93;100780.04;106870;1271;24428;-77
2023/02/14 00:55:14;;;;;;;79.60;29.20;;;;;;;-3.34;82.37;100772.14;106856;1273;22777;-77
2023/02/14 00:57:45;;;;;;;78.90;30.20;;;;;;;-3.37;82.29;100774.90;106788;1281;24212;-77
2023/02/14 01:00:14;;;;;;;89.20;30.20;;;;;;;-3.38;82.77;100769.37;106837;1282;25323;-77
2023/02/14 01:02:42;;;;;;;84.40;30.70;;;;;;;-3.39;82.94;100762.55;106886;1276;22640;-77
2023/02/14 01:05:10;;;;;;;87.60;31.80;;;;;;;-3.42;84.46;100753.11;106863;1279;22574;-77
2023/02/14 01:07:39;;;;;;;85.50;29.90;;;;;;;-3.42;84.71;100751.86;106824;1282;24265;-78
2023/02/14 01:10:07;;;;;;;82.00;29.30;;;;;;;-3.45;83.72;100756.12;106883;1282;25268;-77
2023/02/14 01:12:38;;;;;;;87.10;30.50;;;;;;;-3.48;84.10;100754.96;106856;1276;22527;-77
2023/02/14 01:15:08;;;;;;;82.90;31.50;;;;;;;-3.50;83.13;100750.26;106870;1280;23863;-77
2023/02/14 01:17:38;;;;;;;83.60;31.40;;;;;;;-3.55;83.22;100740.83;106923;1271;22534;-76
2023/02/14 01:20:08;;;;;;;86.70;30.00;;;;;;;-3.60;82.81;100726.79;106908;1282;24241;-77
2023/02/14 01:22:37;;;;;;;83.20;29.20;;;;;;;-3.66;80.63;100716.80;106741;1271;23577;-76
2023/02/14 01:25:06;;;;;;;79.80;29.80;;;;;;;-3.74;83.13;100713.94;106863;1278;24381;-77
2023/02/14 01:27:34;;;;;;;84.20;31.20;;;;;;;-3.79;81.70;100710.41;106924;1275;26249;-78
2023/02/14 01:30:04;;;;;;;91.90;34.20;;;;;;;-3.85;82.56;100707.03;106906;1278;22644;-77
2023/02/14 01:32:36;;;;;;;83.00;30.80;;;;;;;-3.88;82.59;100697.34;106866;1276;23263;-78
2023/02/14 01:35:05;;;;;;;79.50;29.40;;;;;;;-3.90;82.19;100698.95;106783;1260;22536;-76
2023/02/14 01:37:37;;;;;;;84.20;30.80;;;;;;;-3.93;82.82;100698.77;106855;1278;22615;-77
2023/02/14 01:40:08;;;;;;;84.30;31.10;;;;;;;-3.93;83.39;100697.74;106875;1275;25345;-77
2023/02/14 01:42:37;;;;;;;76.90;28.20;;;;;;;-3.94;82.92;100691.95;107885;1278;22552;-77
2023/02/14 01:45:22;;;;;;;76.20;29.30;;;;;;;-3.94;84.15;100686.66;107246;1275;25424;-76
2023/02/14 01:47:57;;;;;;;90.30;29.60;;;;;;;-3.95;83.16;100683.08;107278;1282;25410;-76
2023/02/14 01:50:33;;;;;;;72.90;26.90;;;;;;;-3.94;83.06;100669.23;107222;1275;22485;-77
2023/02/14 01:53:09;;;;;;;58.00;24.30;;;;;;;-3.92;85.93;100651.08;107231;1282;22481;-77
2023/02/14 01:55:44;;;;;;;57.90;20.30;;;;;;;-3.89;85.71;100644.27;107752;1281;24657;-77
2023/02/14 01:58:20;;;;;;;62.40;23.60;;;;;;;-3.84;86.82;100634.10;106868;1282;22584;-77
2023/02/14 02:00:59;;;;;;;60.40;23.90;;;;;;;-3.74;86.98;100636.50;106659;1282;24396;-76
2023/02/14 02:03:40;;;;;;;58.40;23.80;;;;;;;-3.62;87.30;100634.50;106866;1282;24385;-76
2023/02/14 02:06:19;;;;;;;59.80;21.60;;;;;;;-3.47;89.29;100621.73;109927;1282;22187;-77
2023/02/14 02:09:12;;;;;;;58.10;22.40;;;;;;;-3.30;89.60;100616.90;106802;1282;23743;-77
2023/02/14 02:11:48;;;;;;;61.30;24.30;;;;;;;-3.16;88.25;100600.56;106831;1265;24200;-77
2023/02/14 02:14:24;;;;;;;56.50;22.90;;;;;;;-3.05;88.28;100599.29;106793;1282;23901;-77
2023/02/14 02:17:40;;;;;;;56.40;20.70;;;;;;;-2.95;89.22;100596.72;106851;1282;22532;-76
2023/02/14 02:20:50;;;;;;;50.20;21.70;;;;;;;-2.86;88.94;100596.71;106842;1282;22608;-76
2023/02/14 02:23:56;;;;;;;61.50;22.70;;;;;;;-2.75;88.23;100594.04;104548;1282;3152209;-77
2023/02/14 02:26:51;;;;;;;;;;;;;;;-2.65;87.65;100596.27;106843;1282;24396;-77
2023/02/14 02:29:54;;;;;;;45.90;19.20;;;;;;;-2.62;87.82;100594.73;106818;1282;22709;-77
2023/02/14 02:32:54;;;;;;;58.20;22.70;;;;;;;-2.58;87.94;100584.58;106786;1281;22562;-76
2023/02/14 02:35:56;;;;;;;61.80;23.80;;;;;;;-2.53;87.76;100579.73;106847;1282;23930;-77
2023/02/14 02:39:24;;;;;;;65.20;24.50;;;;;;;-2.49;87.29;100582.33;106860;1282;22533;-76
2023/02/14 02:42:34;;;;;;;61.20;24.50;;;;;;;-2.49;87.55;100578.92;106829;1282;24472;-77
2023/02/14 02:45:10;;;;;;;54.50;22.30;;;;;;;-2.48;88.42;100585.06;106882;1282;25262;-77
2023/02/14 02:48:05;;;;;;;62.00;23.10;;;;;;;-2.46;88.23;100581.79;106901;1282;24192;-77
2023/02/14 02:53:56;;;;;;;49.00;20.30;;;;;;;-2.41;88.41;100582.09;106662;1283;22576;-77
2023/02/14 02:56:50;;;;;;;37.10;17.20;;;;;;;-2.36;87.73;100581.61;106817;1272;23966;-77
2023/02/14 02:59:25;;;;;;;48.50;18.70;;;;;;;-2.34;88.83;100578.33;106829;1283;24269;-77
2023/02/14 03:02:12;;;;;;;40.70;18.60;;;;;;;-2.30;88.60;100577.02;106865;1283;22652;-77
2023/02/14 03:04:52;;;;;;;51.70;19.70;;;;;;;-2.24;88.39;100582.96;106679;1283;24273;-79
2023/02/14 03:07:40;;;;;;;45.70;18.20;;;;;;;-2.19;88.63;100577.55;106817;1282;22616;-77
2023/02/14 03:10:20;;;;;;;47.00;18.60;;;;;;;-2.13;88.47;100578.34;106710;1284;24376;-78
2023/02/14 03:13:31;;;;;;;47.00;17.80;;;;;;;-2.07;88.28;100581.05;106579;1284;22573;-76
2023/02/14 03:16:19;;;;;;;50.50;17.50;;;;;;;-2.01;88.23;100586.58;106663;1274;22530;-77
2023/02/14 03:18:50;;;;;;;55.40;21.80;;;;;;;-1.97;88.26;100585.63;106736;1284;25529;-77
2023/02/14 03:21:51;;;;;;;50.40;21.00;;;;;;;-1.95;88.44;100582.98;106747;1262;24291;-77
2023/02/14 03:24:25;;;;;;;55.00;21.90;;;;;;;-1.92;88.25;100576.16;107902;1284;22527;-76
2023/02/14 03:27:02;;;;;;;47.90;20.00;;;;;;;-1.90;88.24;100576.77;106668;1284;22532;-77
2023/02/14 03:29:55;;;;;;;51.30;22.60;;;;;;;-1.89;87.91;100577.02;106635;1278;22534;-77
2023/02/14 03:32:29;;;;;;;48.40;21.20;;;;;;;-1.88;87.52;100580.96;106732;1261;23258;-77
2023/02/14 03:35:31;;;;;;;52.40;20.20;;;;;;;-1.89;87.80;100584.61;109809;1284;23012;-77
2023/02/14 03:38:23;;;;;;;47.20;18.40;;;;;;;-1.87;87.37;100585.21;109778;1284;22267;-76
2023/02/14 03:41:01;;;;;;;46.80;18.10;;;;;;;-1.91;87.62;100604.41;108150;1278;24252;-77
2023/02/14 03:43:38;;;;;;;38.30;15.80;;;;;;;-1.92;87.68;100609.46;106714;1284;22714;-76
2023/02/14 03:46:15;;;;;;;49.70;18.90;;;;;;;-1.90;88.06;100607.69;106700;1281;25490;-77
2023/02/14 03:48:49;;;;;;;52.50;20.10;;;;;;;-1.86;87.74;100614.52;106705;1278;22528;-77
2023/02/14 03:51:22;;;;;;;49.70;18.40;;;;;;;-1.85;88.28;100617.83;106782;1284;22530;-77
2023/02/14 03:53:55;;;;;;;41.60;17.90;;;;;;;-1.80;88.04;100612.94;106644;1282;25346;-77
2023/02/14 03:56:34;;;;;;;49.10;17.40;;;;;;;-1.78;88.05;100616.27;106728;1284;22614;-77
2023/02/14 03:59:21;;;;;;;53.00;18.50;;;;;;;-1.75;87.38;100617.44;106778;1280;25560;-78
2023/02/14 04:02:11;;;;;;;49.40;20.00;;;;;;;-1.70;86.88;100620.90;108172;1280;22544;-76
2023/02/14 04:04:46;;;;;;;60.80;21.00;;;;;;;-1.67;86.77;100625.65;106766;1284;22581;-77
2023/02/14 04:07:20;;;;;;;56.50;21.40;;;;;;;-1.62;86.98;100619.59;106737;1277;24363;-77
2023/02/14 04:09:49;;;;;;;69.10;26.90;;;;;;;-1.55;86.97;100620.25;109754;1281;22538;-77
2023/02/14 04:12:20;;;;;;;57.40;25.20;;;;;;;-1.47;87.11;100621.52;106897;1282;22542;-77
2023/02/14 04:15:05;;;;;;;60.00;24.90;;;;;;;-1.35;87.23;100633.45;106806;1281;23946;-77
2023/02/14 04:20:20;;;;;;;60.70;23.40;;;;;;;-1.22;86.21;100632.20;106851;1282;25226;-77
2023/02/14 04:22:50;;;;;;;61.60;22.70;;;;;;;-1.24;85.35;100628.04;106651;1277;23487;-77
2023/02/14 04:25:20;;;;;;;55.90;22.40;;;;;;;-1.27;85.34;100632.64;109933;1277;22315;-78
2023/02/14 04:27:48;;;;;;;54.80;22.60;;;;;;;-1.30;85.78;100623.34;109287;1276;23002;-77
2023/02/14 04:30:17;;;;;;;53.80;20.20;;;;;;;-1.31;86.12;100622.93;106847;1281;23714;-75
2023/02/14 04:32:45;;;;;;;52.20;19.00;;;;;;;-1.32;85.63;100623.06;106863;1272;22570;-77
2023/02/14 04:35:14;;;;;;;50.30;17.90;;;;;;;-1.33;85.23;100625.89;106818;1282;22750;-76
2023/02/14 04:37:44;;;;;;;50.80;19.30;;;;;;;-1.39;85.04;100631.40;106862;1282;22526;-77
2023/02/14 04:40:15;;;;;;;49.70;19.40;;;;;;;-1.44;85.38;100633.41;106842;1282;22534;-77
2023/02/14 04:42:45;;;;;;;47.10;19.80;;;;;;;-1.46;84.86;100631.44;106827;1282;22578;-77
2023/02/14 04:45:14;;;;;;;54.30;20.90;;;;;;;-1.51;85.31;100634.08;106843;1275;22544;-77
2023/02/14 04:47:42;;;;;;;52.60;20.50;;;;;;;-1.53;85.70;100631.91;106769;1279;23810;-77
2023/02/14 04:50:12;;;;;;;49.70;19.20;;;;;;;-1.54;85.99;100623.39;106761;1276;24217;-77
2023/02/14 04:52:41;;;;;;;48.00;19.50;;;;;;;-1.53;85.86;100623.29;106769;1278;25211;-78
2023/02/14 04:55:10;;;;;;;50.10;19.30;;;;;;;-1.53;85.71;100627.85;106706;1275;25314;-77
2023/02/14 04:57:41;;;;;;;45.30;20.90;;;;;;;-1.52;85.90;100630.61;106774;1281;26094;-77
2023/02/14 05:00:11;;;;;;;51.90;21.30;;;;;;;-1.52;85.35;100630.97;106756;1275;25279;-77
2023/02/14 05:02:42;;;;;;;53.20;21.90;;;;;;;-1.54;86.50;100628.48;106788;1281;25246;-77
2023/02/14 05:05:10;;;;;;;50.00;21.00;;;;;;;-1.55;86.42;100627.60;106875;1282;22529;-77
2023/02/14 05:07:42;;;;;;;59.70;21.50;;;;;;;-1.56;86.39;100621.60;106764;1282;22683;-76
2023/02/14 05:10:13;;;;;;;55.40;19.50;;;;;;;-1.53;85.59;100623.77;106724;1283;22527;-77
2023/02/14 05:12:42;;;;;;;51.60;19.50;;;;;;;-1.50;84.63;100629.18;106906;1275;22575;-78
2023/02/14 05:15:16;;;;;;;59.30;22.60;;;;;;;-1.46;85.31;100632.09;107151;1281;22756;-77
2023/02/14 05:17:47;;;;;;;65.40;22.60;;;;;;;-1.41;85.46;100632.66;107283;1282;22499;-76
2023/02/14 05:20:16;;;;;;;59.10;22.30;;;;;;;-1.36;85.81;100629.14;107171;1282;22529;-77
2023/02/14 05:22:44;;;;;;;59.30;22.40;;;;;;;-1.32;85.86;100620.67;107360;1282;22585;-77
2023/02/14 05:25:16;;;;;;;61.40;20.90;;;;;;;-1.28;86.13;100618.16;107262;1282;22648;-77
2023/02/14 05:27:44;;;;;;;59.90;20.60;;;;;;;-1.23;86.11;100613.77;107030;1282;23230;-77
2023/02/14 05:30:13;;;;;;;70.10;20.80;;;;;;;-1.16;86.21;100614.24;106917;1278;22535;-77
2023/02/14 05:32:42;;;;;;;51.70;18.50;;;;;;;-1.11;86.27;100617.94;106964;1276;22582;-77
2023/02/14 05:35:10;;;;;;;54.70;20.10;;;;;;;-1.04;86.08;100620.27;106959;1275;22652;-76
2023/02/14 05:37:44;;;;;;;64.80;23.60;;;;;;;-0.98;86.14;100617.67;106737;1281;22688;-78
2023/02/14 05:40:13;;;;;;;70.70;27.80;;;;;;;-0.90;86.02;100617.84;106832;1282;23389;-78
2023/02/14 05:42:44;;;;;;;52.90;23.20;;;;;;;-0.85;85.76;100624.71;106981;1278;22530;-77
2023/02/14 05:45:12;;;;;;;44.50;19.60;;;;;;;-0.82;85.66;100620.41;106871;1282;22811;-77
2023/02/14 05:47:40;;;;;;;54.40;21.30;;;;;;;-0.84;85.37;100622.55;106841;1275;22530;-76
2023/02/14 05:50:12;;;;;;;57.30;22.50;;;;;;;-0.84;84.93;100629.54;106769;1275;22524;-77
2023/02/14 05:52:48;;;;;;;58.70;23.20;;;;;;;-0.85;85.03;100630.52;106832;1274;22642;-77
2023/02/14 05:55:17;;;;;;;56.30;22.40;;;;;;;-0.85;85.30;100632.55;106903;1280;22616;-77
2023/02/14 05:57:45;;;;;;;54.90;21.90;;;;;;;-0.87;85.43;100631.79;106923;1271;22526;-77
2023/02/14 06:00:15;;;;;;;50.40;20.50;;;;;;;-0.87;84.54;100632.27;106864;1278;22522;-77
2023/02/14 06:02:43;;;;;;;54.30;22.50;;;;;;;-0.91;84.80;100638.39;109915;1282;22174;-77
2023/02/14 06:05:14;;;;;;;48.20;20.10;;;;;;;-0.90;84.57;100639.97;109906;1282;22209;-76
2023/02/14 06:07:44;;;;;;;55.60;21.70;;;;;;;-0.91;84.95;100630.40;109119;1282;22616;-76
2023/02/14 06:10:13;;;;;;;56.90;21.20;;;;;;;-0.90;84.41;100626.02;106760;1282;22536;-77
2023/02/14 06:12:44;;;;;;;60.90;24.40;;;;;;;-0.90;84.89;100626.19;106917;1282;22569;-77
2023/02/14 06:15:14;;;;;;;47.80;20.50;;;;;;;-0.88;85.22;100625.96;106963;1282;23056;-77
2023/02/14 06:17:48;;;;;;;49.00;20.50;;;;;;;-0.85;85.71;100625.40;106927;1282;25308;-77
2023/02/14 06:20:22;;;;;;;56.80;22.50;;;;;;;-0.81;85.01;100627.12;109880;1283;22405;-77
2023/02/14 06:22:53;;;;;;;53.60;22.10;;;;;;;-0.78;85.15;100630.46;109948;1282;22218;-78
2023/02/14 06:25:23;;;;;;;58.80;22.30;;;;;;;-0.74;85.34;100631.48;109799;1283;22257;-76
2023/02/14 06:27:55;;;;;;;57.60;21.40;;;;;;;-0.71;84.66;100630.79;109818;1281;22263;-76
2023/02/14 06:30:24;;;;;;;47.00;21.00;;;;;;;-0.70;84.71;100634.23;109919;1276;22186;-77
2023/02/14 06:32:58;;;;;;;44.60;20.90;;;;;;;-0.70;84.40;100632.38;109775;1281;22978;-76
2023/02/14 06:35:26;;;;;;;55.80;21.60;;;;;;;-0.69;84.35;100625.96;109845;1279;22373;-77
2023/02/14 06:37:55;;;;;;;61.50;22.70;;;;;;;-0.69;84.11;100628.48;106981;1281;23902;-76
2023/02/14 06:40:30;;;;;;;57.80;22.60;;;;;;;-0.71;84.00;100627.02;106882;1275;22560;-77
2023/02/14 06:43:01;;;;;;;86.30;30.60;;;;;;;-0.72;84.52;100625.79;106824;1281;23011;-77
2023/02/14 06:45:30;;;;;;;66.10;27.20;;;;;;;-0.73;84.16;100626.61;106881;1262;24342;-77
2023/02/14 06:47:59;;;;;;;49.80;21.60;;;;;;;-0.72;83.80;100631.58;106784;1281;25383;-77
2023/02/14 06:50:29;;;;;;;57.60;22.50;;;;;;;-0.70;84.40;100616.54;106739;1281;22667;-76
2023/02/14 06:53:00;;;;;;;52.50;19.20;;;;;;;-0.66;84.84;100611.07;107026;1282;24260;-77
2023/02/14 06:55:29;;;;;;;63.30;26.40;;;;;;;-0.63;83.91;100617.57;106858;1282;22561;-77
2023/02/14 06:57:57;;;;;;;59.50;22.80;;;;;;;-0.60;84.68;100621.05;106899;1282;22534;-77
2023/02/14 07:00:26;;;;;;;53.10;21.50;;;;;;;-0.53;84.75;100629.02;106892;1271;22552;-77
2023/02/14 07:02:54;;;;;;;50.70;19.10;;;;;;;-0.48;85.11;100626.01;107046;1276;25532;-76
2023/02/14 07:05:25;;;;;;;47.90;20.20;;;;;;;-0.42;85.26;100623.05;106714;1280;22551;-76
2023/02/14 07:07:54;;;;;;;54.50;18.20;;;;;;;-0.33;85.47;100620.67;106920;1282;23248;-77
2023/02/14 07:10:23;;;;;;;46.10;18.30;;;;;;;-0.30;85.55;100618.30;106848;1280;22861;-77
2023/02/14 07:12:52;;;;;;;47.80;18.30;;;;;;;-0.25;85.45;100615.11;106701;1277;22535;-77
2023/02/14 07:15:20;;;;;;;51.90;22.20;;;;;;;-0.20;85.47;100615.83;106747;1281;22556;-78
2023/02/14 07:17:48;;;;;;;53.70;23.20;;;;;;;-0.13;85.35;100612.52;106799;1275;25310;-77
2023/02/14 07:20:18;;;;;;;54.20;21.80;;;;;;;-0.08;85.15;100616.80;107076;1277;22532;-77
2023/02/14 07:22:48;;;;;;;52.50;21.10;;;;;;;-0.02;85.04;100620.30;107062;1275;25284;-77
2023/02/14 07:25:17;;;;;;;52.10;22.00;;;;;;;0.05;84.68;100629.45;107025;1267;25344;-76
2023/02/14 07:27:45;;;;;;;60.50;23.30;;;;;;;0.04;84.53;100625.88;107046;1276;22661;-77
2023/02/14 07:30:14;;;;;;;58.90;23.80;;;;;;;0.12;84.80;100629.44;107063;1279;22565;-77
2023/02/14 07:32:42;;;;;;;57.20;23.20;;;;;;;0.19;84.27;100634.34;106972;1282;22574;-77
2023/02/14 07:35:16;;;;;;;63.40;24.20;;;;;;;0.25;83.83;100638.80;107084;1277;24257;-75
2023/02/14 07:37:49;;;;;;;54.60;21.80;;;;;;;0.27;83.09;100646.05;107227;1275;23037;-76
2023/02/14 07:40:23;;;;;;;52.50;21.10;;;;;;;0.28;83.12;100640.81;107284;1277;23730;-76
2023/02/14 07:43:02;;;;;;;52.50;21.40;;;;;;;0.31;82.97;100642.80;107598;1274;25023;-78
2023/02/14 07:45:33;;;;;;;53.90;23.00;;;;;;;0.33;82.89;100641.03;107127;1280;23028;-76
2023/02/14 07:48:04;;;;;;;54.50;22.70;;;;;;;0.35;82.81;100636.16;107107;1275;22536;-76
2023/02/14 07:50:38;;;;;;;57.30;23.40;;;;;;;0.38;82.47;100637.80;107304;1278;22548;-78
2023/02/14 07:53:11;;;;;;;56.80;23.50;;;;;;;0.43;82.64;100637.33;107764;1282;25332;-76
2023/02/14 07:55:39;;;;;;;49.10;20.60;;;;;;;0.50;82.27;100628.21;107231;1279;25409;-77
2023/02/14 07:58:08;;;;;;;52.40;19.00;;;;;;;0.55;82.09;100624.02;106978;1279;22519;-78
2023/02/14 08:00:37;;;;;;;52.30;19.70;;;;;;;0.60;82.34;100624.17;107141;1278;22563;-78
2023/02/14 08:03:09;;;;;;;62.40;20.90;;;;;;;0.67;82.48;100621.41;107127;1281;22567;-76
2023/02/14 08:05:40;;;;;;;54.70;19.80;;;;;;;0.69;82.53;100617.73;107073;1276;22560;-77
2023/02/14 08:08:13;;;;;;;54.90;21.20;;;;;;;0.74;82.64;100613.82;107053;1275;25360;-78
2023/02/14 08:10:42;;;;;;;57.80;21.10;;;;;;;0.80;82.68;100616.96;107160;1275;22639;-77
2023/02/14 08:13:16;;;;;;;53.60;20.40;;;;;;;0.93;82.95;100620.52;107116;1282;25352;-78
2023/02/14 08:16:06;;;;;;;51.30;22.40;;;;;;;1.01;82.76;100618.44;107052;1275;25436;-76
2023/02/14 08:18:44;;;;;;;50.20;22.40;;;;;;;1.11;82.96;100610.27;107005;1276;24253;-76
2023/02/14 08:21:12;;;;;;;54.10;21.90;;;;;;;1.17;81.88;100611.50;107129;1279;24392;-76
2023/02/14 08:23:43;;;;;;;49.80;21.10;;;;;;;1.23;81.79;100613.29;107106;1278;25010;-77
2023/02/14 08:26:20;;;;;;;59.10;22.20;;;;;;;1.23;80.91;100606.26;109855;1280;22278;-76
2023/02/14 08:28:51;;;;;;;51.80;22.80;;;;;;;1.24;80.63;100608.87;109722;1280;24298;-78
2023/02/14 08:31:30;;;;;;;55.20;21.60;;;;;;;1.29;80.79;100611.29;107207;1278;22555;-77
2023/02/14 08:34:05;;;;;;;45.60;20.10;;;;;;;1.28;80.38;100611.58;107190;1282;22556;-77
2023/02/14 08:36:38;;;;;;;52.30;21.60;;;;;;;1.28;80.40;100610.39;107163;1278;24739;-77
2023/02/14 08:39:10;;;;;;;54.80;22.90;;;;;;;1.32;80.36;100610.70;107161;1258;23265;-77
2023/02/14 08:41:41;;;;;;;52.10;22.10;;;;;;;1.38;80.33;100616.55;107040;1282;24545;-77
2023/02/14 08:44:15;;;;;;;46.70;20.30;;;;;;;1.48;80.33;100615.04;107083;1282;22535;-76
2023/02/14 08:46:46;;;;;;;45.30;19.40;;;;;;;1.59;80.38;100615.10;106862;1276;22655;-77
2023/02/14 08:49:28;;;;;;;50.00;19.70;;;;;;;1.66;80.02;100616.52;106960;1280;24487;-77
2023/02/14 08:51:59;;;;;;;46.40;20.00;;;;;;;1.72;79.75;100617.94;106974;1282;22823;-77
2023/02/14 08:54:30;;;;;;;50.80;21.60;;;;;;;1.83;79.75;100622.41;106779;1282;22528;-76
2023/02/14 08:56:58;;;;;;;50.20;21.00;;;;;;;1.91;78.99;100624.06;106933;1282;22618;-77
2023/02/14 08:59:30;;;;;;;47.80;20.60;;;;;;;2.01;78.79;100624.92;106947;1280;22530;-77
2023/02/14 09:02:01;;;;;;;46.00;19.10;;;;;;;2.13;78.94;100623.62;109732;1278;22407;-76
2023/02/14 09:04:30;;;;;;;46.40;19.50;;;;;;;2.24;78.33;100621.25;109809;1276;22228;-75
2023/02/14 09:06:59;;;;;;;42.20;18.30;;;;;;;2.32;78.13;100627.48;109840;1282;22412;-77
2023/02/14 09:09:31;;;;;;;60.40;23.80;;;;;;;2.40;78.34;100629.63;109852;1282;22171;-76
2023/02/14 09:12:05;;;;;;;64.70;25.70;;;;;;;2.48;77.91;100639.31;109900;1277;22269;-77
2023/02/14 09:14:45;;;;;;;45.60;20.50;;;;;;;2.58;77.34;100643.91;109879;1270;23084;-77
2023/02/14 09:17:29;;;;;;;45.40;19.60;;;;;;;2.67;77.07;100644.54;108027;1277;24240;-78
2023/02/14 09:19:57;;;;;;;48.10;21.60;;;;;;;2.75;76.62;100645.99;106985;1282;22656;-77
2023/02/14 09:22:29;;;;;;;42.80;19.30;;;;;;;2.86;76.91;100645.63;107029;1281;22652;-77
2023/02/14 09:25:04;;;;;;;49.40;19.70;;;;;;;2.91;77.12;100644.74;107130;1275;22556;-76
2023/02/14 09:27:43;;;;;;;46.50;20.80;;;;;;;2.96;76.42;100640.46;107065;1282;25532;-78
2023/02/14 09:30:21;;;;;;;46.00;20.00;;;;;;;3.01;76.42;100633.44;107078;1279;22535;-76
2023/02/14 09:33:03;;;;;;;53.50;19.20;;;;;;;3.06;76.69;100644.86;107170;1282;22536;-78
2023/02/14 09:35:45;;;;;;;53.40;20.40;;;;;;;3.11;76.91;100642.98;107172;1282;24348;-76
2023/02/14 09:38:20;;;;;;;52.30;20.50;;;;;;;3.18;76.89;100642.83;107181;1277;25400;-76
2023/02/14 09:41:01;;;;;;;47.20;19.90;;;;;;;3.22;75.75;100632.83;106990;1277;23253;-77
2023/02/14 09:44:02;;;;;;;53.30;21.60;;;;;;;3.20;75.80;100640.51;107184;1282;22551;-78
2023/02/14 09:46:52;;;;;;;50.50;17.80;;;;;;;3.27;76.21;100644.64;107069;1280;25258;-78
2023/02/14 09:49:56;;;;;;;56.70;25.50;;;;;;;3.34;76.35;100646.20;107213;1282;22537;-77
2023/02/14 09:52:46;;;;;;;45.00;20.30;;;;;;;3.48;75.41;100648.69;107398;1276;22738;-78
2023/02/14 09:55:34;;;;;;;53.60;20.10;;;;;;;3.61;75.22;100638.75;107255;1277;25298;-76
2023/02/14 09:58:16;;;;;;;40.10;18.10;;;;;;;3.77;75.79;100641.58;107608;1282;22534;-77
2023/02/14 10:00:59;;;;;;;49.70;18.20;;;;;;;3.90;74.82;100640.04;107601;1282;22534;-76
2023/02/14 10:04:35;;;;;;;62.90;20.00;;;;;;;4.03;74.75;100639.37;107214;1282;25274;-78
2023/02/14 10:07:57;;;;;;;60.10;19.30;;;;;;;4.26;76.05;100637.54;107088;1276;22557;-76
2023/02/14 10:11:05;;;;;;;47.60;17.50;;;;;;;4.40;75.27;100634.13;106654;1288;22672;-78
2023/02/14 10:13:44;;;;;;;43.00;19.00;;;;;;;4.54;73.96;100628.63;107123;1276;23052;-78
2023/02/14 10:16:55;;;;;;;45.90;18.70;;;;;;;4.60;73.01;100628.42;107086;1273;22559;-79
2023/02/14 10:19:51;;;;;;;53.90;21.10;;;;;;;4.74;73.59;100621.86;106838;1280;23411;-77
2023/02/14 10:22:33;;;;;;;48.10;20.60;;;;;;;4.79;72.70;100621.98;106833;1273;23919;-76
2023/02/14 10:25:37;;;;;;;53.20;20.70;;;;;;;4.88;73.51;100616.69;106958;1282;22529;-77
2023/02/14 10:28:23;;;;;;;44.70;19.70;;;;;;;4.93;72.35;100621.60;106866;1282;23043;-76
2023/02/14 10:31:40;;;;;;;51.30;20.90;;;;;;;4.87;71.88;100625.95;109882;1271;22325;-77
2023/02/14 10:34:50;;;;;;;51.70;20.70;;;;;;;4.84;71.06;100623.98;109767;1282;22272;-77
2023/02/14 10:37:52;;;;;;;59.30;19.30;;;;;;;4.92;71.91;100620.55;109715;1276;23224;-77
2023/02/14 10:40:43;;;;;;;47.80;19.40;;;;;;;4.88;70.58;100619.27;109736;1277;22222;-77
2023/02/14 10:43:33;;;;;;;49.80;19.60;;;;;;;4.90;71.99;100619.64;109829;1275;22372;-77
2023/02/14 10:46:18;;;;;;;42.80;18.90;;;;;;;4.91;70.60;100619.31;109729;1279;22312;-76
2023/02/14 10:49:30;;;;;;;42.60;16.90;;;;;;;4.98;70.78;100615.18;109844;1277;22325;-77
2023/02/14 10:52:56;;;;;;;39.00;16.60;;;;;;;4.91;70.58;100617.11;109783;1275;22196;-76
2023/02/14 10:55:52;;;;;;;39.50;18.60;;;;;;;4.84;70.02;100603.88;109840;1276;22356;-77
2023/02/14 10:58:42;;;;;;;45.80;17.40;;;;;;;4.83;69.87;100600.95;108844;1279;22665;-79
2023/02/14 11:01:26;;;;;;;43.00;18.20;;;;;;;4.78;69.81;100597.05;107173;1277;22765;-76
2023/02/14 11:04:07;;;;;;;45.90;18.50;;;;;;;4.80;70.12;100596.23;107129;1277;22563;-77
2023/02/14 11:06:40;;;;;;;41.30;17.50;;;;;;;4.79;69.80;100594.14;107015;1276;22527;-78
2023/02/14 11:09:21;;;;;;;41.30;18.50;;;;;;;4.78;70.29;100591.05;109798;1277;22336;-76
2023/02/14 11:11:59;;;;;;;42.90;18.10;;;;;;;4.79;70.06;100580.42;108576;1275;25294;-77
2023/02/14 11:14:35;;;;;;;49.40;19.50;;;;;;;4.77;70.10;100572.12;107104;1282;22601;-77
2023/02/14 11:17:28;;;;;;;52.20;20.10;;;;;;;4.77;69.64;100563.88;109822;1280;22228;-77
2023/02/14 11:20:06;;;;;;;51.80;19.70;;;;;;;4.80;69.31;100563.77;109752;1277;22278;-76
2023/02/14 11:22:34;;;;;;;48.30;19.40;;;;;;;4.82;70.06;100560.54;109726;1276;22227;-76
2023/02/14 11:25:38;;;;;;;51.50;19.30;;;;;;;4.83;70.01;100561.60;109750;1279;22370;-76
2023/02/14 11:28:15;;;;;;;49.70;18.10;;;;;;;4.89;70.12;100560.36;109341;1288;22263;-76
2023/02/14 11:30:47;;;;;;;46.20;18.50;;;;;;;4.94;69.46;100555.67;109713;1279;22187;-76
2023/02/14 11:33:33;;;;;;;41.00;18.10;;;;;;;4.97;69.72;100554.02;109867;1282;22374;-76
2023/02/14 11:36:04;;;;;;;39.60;16.80;;;;;;;5.04;69.36;100552.42;109791;1282;22173;-77
2023/02/14 11:38:37;;;;;;;46.40;16.80;;;;;;;5.09;68.71;100545.66;109860;1282;22188;-77
2023/02/14 11:41:09;;;;;;;37.00;16.80;;;;;;;5.21;69.05;100550.70;109882;1277;22200;-77
2023/02/14 11:43:42;;;;;;;40.20;16.70;;;;;;;5.29;68.43;100550.52;109844;1282;22240;-76
2023/02/14 11:46:19;;;;;;;42.70;17.00;;;;;;;5.36;68.51;100548.59;109745;1282;22202;-77
2023/02/14 11:49:01;;;;;;;39.80;16.40;;;;;;;5.44;67.78;100551.67;109874;1275;22652;-78
2023/02/14 11:51:32;;;;;;;30.70;15.20;;;;;;;5.54;67.71;100549.63;109820;1277;22371;-77
2023/02/14 11:54:06;;;;;;;30.20;14.60;;;;;;;5.62;67.58;100547.70;109859;1282;22347;-76